sensor_id;sensor_type;location;lat;lon;timestamp;pressure;altitude;pressure_sealevel;temperature;humidity
50867;BME280;36839;51.946;21.002;2023-02-14T00:01:22;101627.53;;;3.60;100.00
50867;BME280;36839;51.946;21.002;2023-02-14T00:03:51;101624.59;;;3.60;100.00
50867;BME280;36839;51.946;21.002;2023-02-14T00:06:18;101635.83;;;3.59;100.00
50867;BME280;36839;51.946;21.002;2023-02-14T00:08:45;101626.15;;;3.58;100.00
50867;BME280;36839;51.946;21.002;2023-02-14T00:11:13;101624.43;;;3.57;100.00
50867;BME280;36839;51.946;21.002;2023-02-14T00:13:41;101623.62;;;3.56;100.00
50867;BME280;36839;51.946;21.002;2023-02-14T00:16:31;101627.83;;;3.57;100.00
50867;BME280;36839;51.946;21.002;2023-02-14T00:18:58;101635.31;;;3.57;100.00
50867;BME280;36839;51.946;21.002;2023-02-14T00:21:33;101645.45;;;3.55;100.00
50867;BME280;36839;51.946;21.002;2023-02-14T00:24:11;101639.95;;;3.55;100.00
50867;BME280;36839;51.946;21.002;2023-02-14T00:26:41;101637.69;;;3.56;100.00
50867;BME280;36839;51.946;21.002;2023-02-14T00:29:15;101633.27;;;3.55;100.00
50867;BME280;36839;51.946;21.002;2023-02-14T00:31:42;101630.70;;;3.55;100.00
50867;BME280;36839;51.946;21.002;2023-02-14T00:34:10;101628.77;;;3.54;100.00
50867;BME280;36839;51.946;21.002;2023-02-14T00:36:38;101627.38;;;3.54;100.00
50867;BME280;36839;51.946;21.002;2023-02-14T00:39:06;101621.95;;;3.54;100.00
50867;BME280;36839;51.946;21.002;2023-02-14T00:41:35;101628.98;;;3.52;100.00
50867;BME280;36839;51.946;21.002;2023-02-14T00:44:03;101628.77;;;3.49;100.00
50867;BME280;36839;51.946;21.002;2023-02-14T00:46:32;101629.59;;;3.48;100.00
50867;BME280;36839;51.946;21.002;2023-02-14T00:48:59;101623.37;;;3.48;100.00
50867;BME280;36839;51.946;21.002;2023-02-14T00:51:26;101623.28;;;3.47;100.00
50867;BME280;36839;51.946;21.002;2023-02-14T00:53:54;101630.24;;;3.45;100.00
50867;BME280;36839;51.946;21.002;2023-02-14T00:56:22;101624.93;;;3.44;100.00
50867;BME280;36839;51.946;21.002;2023-02-14T00:58:49;101628.42;;;3.44;100.00
50867;BME280;36839;51.946;21.002;2023-02-14T01:01:16;101629.26;;;3.43;100.00
50867;BME280;36839;51.946;21.002;2023-02-14T01:03:45;101621.55;;;3.42;100.00
50867;BME280;36839;51.946;21.002;2023-02-14T01:06:13;101618.34;;;3.41;100.00
50867;BME280;36839;51.946;21.002;2023-02-14T01:08:40;101624.29;;;3.40;100.00
50867;BME280;36839;51.946;21.002;2023-02-14T01:11:08;101635.66;;;3.40;100.00
50867;BME280;36839;51.946;21.002;2023-02-14T01:13:36;101637.10;;;3.37;100.00
50867;BME280;36839;51.946;21.002;2023-02-14T01:16:07;101636.61;;;3.38;100.00
50867;BME280;36839;51.946;21.002;2023-02-14T01:18:38;101642.42;;;3.37;100.00
50867;BME280;36839;51.946;21.002;2023-02-14T01:21:13;101642.09;;;3.36;100.00
50867;BME280;36839;51.946;21.002;2023-02-14T01:23:49;101636.39;;;3.34;100.00
50867;BME280;36839;51.946;21.002;2023-02-14T01:26:17;101642.05;;;3.32;100.00
50867;BME280;36839;51.946;21.002;2023-02-14T01:28:45;101631.42;;;3.33;100.00
50867;BME280;36839;51.946;21.002;2023-02-14T01:31:16;101632.56;;;3.31;100.00
50867;BME280;36839;51.946;21.002;2023-02-14T01:33:45;101630.58;;;3.28;100.00
50867;BME280;36839;51.946;21.002;2023-02-14T01:36:18;101630.59;;;3.25;100.00
50867;BME280;36839;51.946;21.002;2023-02-14T01:38:45;101630.84;;;3.23;100.00
50867;BME280;36839;51.946;21.002;2023-02-14T01:41:14;101634.37;;;3.21;100.00
50867;BME280;36839;51.946;21.002;2023-02-14T01:44:00;101633.13;;;3.19;100.00
50867;BME280;36839;51.946;21.002;2023-02-14T01:46:33;101639.51;;;3.18;100.00
50867;BME280;36839;51.946;21.002;2023-02-14T01:49:20;101644.61;;;3.16;100.00
50867;BME280;36839;51.946;21.002;2023-02-14T01:51:55;101640.56;;;3.15;100.00
50867;BME280;36839;51.946;21.002;2023-02-14T01:54:26;101647.91;;;3.14;100.00
50867;BME280;36839;51.946;21.002;2023-02-14T01:57:02;101653.65;;;3.12;100.00
50867;BME280;36839;51.946;21.002;2023-02-14T01:59:36;101641.51;;;3.12;100.00
50867;BME280;36839;51.946;21.002;2023-02-14T02:02:04;101641.14;;;3.10;100.00
50867;BME280;36839;51.946;21.002;2023-02-14T02:04:38;101639.44;;;3.08;100.00
50867;BME280;36839;51.946;21.002;2023-02-14T02:07:10;101638.41;;;3.06;100.00
50867;BME280;36839;51.946;21.002;2023-02-14T02:09:48;101627.98;;;3.05;100.00
50867;BME280;36839;51.946;21.002;2023-02-14T02:12:17;101647.90;;;3.04;100.00
50867;BME280;36839;51.946;21.002;2023-02-14T02:14:45;101633.01;;;3.02;100.00
50867;BME280;36839;51.946;21.002;2023-02-14T02:23:15;101638.26;;;2.99;100.00
50867;BME280;36839;51.946;21.002;2023-02-14T02:28:43;101632.93;;;2.97;100.00
50867;BME280;36839;51.946;21.002;2023-02-14T02:51:31;101663.41;;;2.89;100.00
50867;BME280;36839;51.946;21.002;2023-02-14T02:54:41;101677.11;;;2.83;100.00
50867;BME280;36839;51.946;21.002;2023-02-14T02:57:21;101679.61;;;2.82;100.00
50867;BME280;36839;51.946;21.002;2023-02-14T02:59:53;101684.15;;;2.79;100.00
50867;BME280;36839;51.946;21.002;2023-02-14T03:02:26;101686.35;;;2.78;100.00
50867;BME280;36839;51.946;21.002;2023-02-14T03:04:59;101686.02;;;2.78;100.00
50867;BME280;36839;51.946;21.002;2023-02-14T03:10:24;101681.84;;;2.74;100.00
50867;BME280;36839;51.946;21.002;2023-02-14T03:13:04;101681.17;;;2.74;100.00
50867;BME280;36839;51.946;21.002;2023-02-14T03:16:05;101688.51;;;2.72;100.00
50867;BME280;36839;51.946;21.002;2023-02-14T03:21:36;101679.48;;;2.69;100.00
50867;BME280;36839;51.946;21.002;2023-02-14T03:27:02;101677.20;;;2.66;100.00
50867;BME280;36839;51.946;21.002;2023-02-14T03:30:16;101681.64;;;2.64;100.00
50867;BME280;36839;51.946;21.002;2023-02-14T03:32:38;101685.85;;;2.62;100.00
50867;BME280;36839;51.946;21.002;2023-02-14T03:35:36;101684.63;;;2.62;100.00
50867;BME280;36839;51.946;21.002;2023-02-14T03:38:50;101690.23;;;2.61;100.00
50867;BME280;36839;51.946;21.002;2023-02-14T03:41:38;101687.86;;;2.59;100.00
50867;BME280;36839;51.946;21.002;2023-02-14T03:44:09;101685.91;;;2.60;100.00
50867;BME280;36839;51.946;21.002;2023-02-14T03:46:43;101684.22;;;2.59;100.00
50867;BME280;36839;51.946;21.002;2023-02-14T03:49:17;101686.13;;;2.57;100.00
50867;BME280;36839;51.946;21.002;2023-02-14T03:51:50;101683.31;;;2.57;100.00
50867;BME280;36839;51.946;21.002;2023-02-14T03:54:24;101681.96;;;2.55;100.00
50867;BME280;36839;51.946;21.002;2023-02-14T03:56:56;101683.45;;;2.55;100.00
50867;BME280;36839;51.946;21.002;2023-02-14T03:59:27;101680.23;;;2.53;100.00
50867;BME280;36839;51.946;21.002;2023-02-14T04:02:22;101688.90;;;2.52;100.00
50867;BME280;36839;51.946;21.002;2023-02-14T04:04:51;101683.95;;;2.51;100.00
50867;BME280;36839;51.946;21.002;2023-02-14T04:07:22;101689.05;;;2.48;100.00
50867;BME280;36839;51.946;21.002;2023-02-14T04:09:50;101687.64;;;2.46;100.00
50867;BME280;36839;51.946;21.002;2023-02-14T04:12:18;101682.86;;;2.43;100.00
50867;BME280;36839;51.946;21.002;2023-02-14T04:14:45;101677.48;;;2.43;100.00
50867;BME280;36839;51.946;21.002;2023-02-14T04:17:15;101672.95;;;2.42;100.00
50867;BME280;36839;51.946;21.002;2023-02-14T04:20:01;101681.35;;;2.41;100.00
50867;BME280;36839;51.946;21.002;2023-02-14T04:22:28;101680.27;;;2.39;100.00
50867;BME280;36839;51.946;21.002;2023-02-14T04:24:55;101678.96;;;2.36;100.00
50867;BME280;36839;51.946;21.002;2023-02-14T04:27:22;101684.30;;;2.36;100.00
50867;BME280;36839;51.946;21.002;2023-02-14T04:29:49;101690.70;;;2.34;100.00
50867;BME280;36839;51.946;21.002;2023-02-14T04:32:21;101685.26;;;2.32;100.00
50867;BME280;36839;51.946;21.002;2023-02-14T04:34:48;101693.27;;;2.31;100.00
50867;BME280;36839;51.946;21.002;2023-02-14T04:37:17;101692.65;;;2.30;100.00
50867;BME280;36839;51.946;21.002;2023-02-14T04:39:44;101684.09;;;2.30;100.00
50867;BME280;36839;51.946;21.002;2023-02-14T04:42:12;101687.88;;;2.28;100.00
50867;BME280;36839;51.946;21.002;2023-02-14T04:44:39;101688.30;;;2.28;100.00
50867;BME280;36839;51.946;21.002;2023-02-14T04:47:08;101697.59;;;2.27;100.00
50867;BME280;36839;51.946;21.002;2023-02-14T04:49:35;101705.70;;;2.26;100.00
50867;BME280;36839;51.946;21.002;2023-02-14T04:52:03;101704.70;;;2.24;100.00
50867;BME280;36839;51.946;21.002;2023-02-14T04:54:30;101709.09;;;2.24;100.00
50867;BME280;36839;51.946;21.002;2023-02-14T04:56:57;101717.99;;;2.23;100.00
50867;BME280;36839;51.946;21.002;2023-02-14T04:59:25;101713.61;;;2.21;100.00
50867;BME280;36839;51.946;21.002;2023-02-14T05:01:52;101709.95;;;2.20;100.00
50867;BME280;36839;51.946;21.002;2023-02-14T05:04:19;101715.47;;;2.20;100.00
50867;BME280;36839;51.946;21.002;2023-02-14T05:06:46;101714.83;;;2.19;100.00
50867;BME280;36839;51.946;21.002;2023-02-14T05:09:13;101719.48;;;2.18;100.00
50867;BME280;36839;51.946;21.002;2023-02-14T05:11:41;101722.20;;;2.15;100.00
50867;BME280;36839;51.946;21.002;2023-02-14T05:14:09;101725.56;;;2.15;100.00
50867;BME280;36839;51.946;21.002;2023-02-14T05:16:37;101727.06;;;2.15;100.00
50867;BME280;36839;51.946;21.002;2023-02-14T05:19:04;101729.07;;;2.12;100.00
50867;BME280;36839;51.946;21.002;2023-02-14T05:21:31;101725.70;;;2.11;100.00
50867;BME280;36839;51.946;21.002;2023-02-14T05:24:00;101733.44;;;2.10;100.00
50867;BME280;36839;51.946;21.002;2023-02-14T05:26:27;101737.56;;;2.09;100.00
50867;BME280;36839;51.946;21.002;2023-02-14T05:28:54;101746.10;;;2.07;100.00
50867;BME280;36839;51.946;21.002;2023-02-14T05:31:21;101741.14;;;2.06;100.00
50867;BME280;36839;51.946;21.002;2023-02-14T05:33:49;101747.61;;;2.06;100.00
50867;BME280;36839;51.946;21.002;2023-02-14T05:36:16;101744.57;;;2.07;100.00
50867;BME280;36839;51.946;21.002;2023-02-14T05:38:43;101743.42;;;2.06;100.00
50867;BME280;36839;51.946;21.002;2023-02-14T05:41:10;101742.58;;;2.05;100.00
50867;BME280;36839;51.946;21.002;2023-02-14T05:43:37;101747.05;;;2.04;100.00
50867;BME280;36839;51.946;21.002;2023-02-14T05:46:04;101749.60;;;2.04;100.00
50867;BME280;36839;51.946;21.002;2023-02-14T05:48:34;101746.95;;;2.04;100.00
50867;BME280;36839;51.946;21.002;2023-02-14T05:51:06;101749.89;;;2.03;100.00
50867;BME280;36839;51.946;21.002;2023-02-14T05:53:34;101752.38;;;2.02;100.00
50867;BME280;36839;51.946;21.002;2023-02-14T05:56:01;101749.15;;;2.02;100.00
50867;BME280;36839;51.946;21.002;2023-02-14T05:58:29;101756.33;;;2.03;100.00
50867;BME280;36839;51.946;21.002;2023-02-14T06:00:56;101761.39;;;2.03;100.00
50867;BME280;36839;51.946;21.002;2023-02-14T06:03:24;101762.90;;;2.02;100.00
50867;BME280;36839;51.946;21.002;2023-02-14T06:05:51;101761.61;;;2.03;100.00
50867;BME280;36839;51.946;21.002;2023-02-14T06:08:18;101767.34;;;2.00;100.00
50867;BME280;36839;51.946;21.002;2023-02-14T06:10:46;101764.66;;;1.99;100.00
50867;BME280;36839;51.946;21.002;2023-02-14T06:13:13;101765.84;;;1.98;100.00
50867;BME280;36839;51.946;21.002;2023-02-14T06:15:40;101767.91;;;1.98;100.00
50867;BME280;36839;51.946;21.002;2023-02-14T06:18:07;101770.64;;;1.98;100.00
50867;BME280;36839;51.946;21.002;2023-02-14T06:20:34;101774.05;;;1.97;100.00
50867;BME280;36839;51.946;21.002;2023-02-14T06:23:01;101771.91;;;1.96;100.00
50867;BME280;36839;51.946;21.002;2023-02-14T06:25:29;101781.05;;;1.97;100.00
50867;BME280;36839;51.946;21.002;2023-02-14T06:27:57;101785.59;;;1.97;100.00
50867;BME280;36839;51.946;21.002;2023-02-14T06:30:25;101781.06;;;1.97;100.00
50867;BME280;36839;51.946;21.002;2023-02-14T06:32:54;101777.42;;;1.96;100.00
50867;BME280;36839;51.946;21.002;2023-02-14T06:35:22;101779.01;;;1.95;100.00
50867;BME280;36839;51.946;21.002;2023-02-14T06:37:49;101786.05;;;1.95;100.00
50867;BME280;36839;51.946;21.002;2023-02-14T06:40:16;101784.90;;;1.94;100.00
50867;BME280;36839;51.946;21.002;2023-02-14T06:42:45;101790.63;;;1.93;100.00
50867;BME280;36839;51.946;21.002;2023-02-14T06:45:13;101783.98;;;1.94;100.00
50867;BME280;36839;51.946;21.002;2023-02-14T06:47:44;101785.77;;;1.94;100.00
50867;BME280;36839;51.946;21.002;2023-02-14T06:50:12;101785.60;;;1.96;100.00
50867;BME280;36839;51.946;21.002;2023-02-14T06:52:39;101786.16;;;1.94;100.00
50867;BME280;36839;51.946;21.002;2023-02-14T06:55:07;101794.96;;;1.92;100.00
50867;BME280;36839;51.946;21.002;2023-02-14T06:57:35;101788.48;;;1.90;100.00
50867;BME280;36839;51.946;21.002;2023-02-14T07:00:02;101785.95;;;1.90;100.00
50867;BME280;36839;51.946;21.002;2023-02-14T07:02:29;101787.64;;;1.91;100.00
50867;BME280;36839;51.946;21.002;2023-02-14T07:04:58;101793.26;;;1.89;100.00
50867;BME280;36839;51.946;21.002;2023-02-14T07:07:25;101801.33;;;1.87;100.00
50867;BME280;36839;51.946;21.002;2023-02-14T07:09:52;101798.37;;;1.89;100.00
50867;BME280;36839;51.946;21.002;2023-02-14T07:12:19;101802.04;;;1.90;100.00
50867;BME280;36839;51.946;21.002;2023-02-14T07:14:47;101803.60;;;1.88;100.00
50867;BME280;36839;51.946;21.002;2023-02-14T07:17:14;101805.52;;;1.85;100.00
50867;BME280;36839;51.946;21.002;2023-02-14T07:19:41;101802.89;;;1.83;100.00
50867;BME280;36839;51.946;21.002;2023-02-14T07:22:08;101807.55;;;1.84;100.00
50867;BME280;36839;51.946;21.002;2023-02-14T07:24:35;101811.08;;;1.84;100.00
50867;BME280;36839;51.946;21.002;2023-02-14T07:27:04;101813.33;;;1.85;100.00
50867;BME280;36839;51.946;21.002;2023-02-14T07:29:32;101809.17;;;1.87;100.00
50867;BME280;36839;51.946;21.002;2023-02-14T07:31:59;101806.27;;;1.90;100.00
50867;BME280;36839;51.946;21.002;2023-02-14T07:34:25;101807.98;;;1.94;100.00
50867;BME280;36839;51.946;21.002;2023-02-14T07:36:55;101802.98;;;1.99;100.00
50867;BME280;36839;51.946;21.002;2023-02-14T07:39:22;101805.66;;;2.00;100.00
50867;BME280;36839;51.946;21.002;2023-02-14T07:41:51;101806.21;;;2.05;100.00
50867;BME280;36839;51.946;21.002;2023-02-14T07:44:19;101807.70;;;2.08;100.00
50867;BME280;36839;51.946;21.002;2023-02-14T07:46:46;101807.46;;;2.11;100.00
50867;BME280;36839;51.946;21.002;2023-02-14T07:49:13;101815.34;;;2.09;100.00
50867;BME280;36839;51.946;21.002;2023-02-14T07:51:40;101813.33;;;2.08;100.00
50867;BME280;36839;51.946;21.002;2023-02-14T07:54:07;101817.00;;;2.07;100.00
50867;BME280;36839;51.946;21.002;2023-02-14T07:56:34;101812.30;;;2.09;100.00
50867;BME280;36839;51.946;21.002;2023-02-14T07:59:02;101816.90;;;2.06;100.00
50867;BME280;36839;51.946;21.002;2023-02-14T08:01:30;101819.49;;;2.08;100.00
50867;BME280;36839;51.946;21.002;2023-02-14T08:03:56;101821.30;;;2.11;100.00
50867;BME280;36839;51.946;21.002;2023-02-14T08:06:23;101827.16;;;2.14;100.00
50867;BME280;36839;51.946;21.002;2023-02-14T08:08:53;101828.76;;;2.09;100.00
50867;BME280;36839;51.946;21.002;2023-02-14T08:11:20;101828.73;;;2.06;100.00
50867;BME280;36839;51.946;21.002;2023-02-14T08:14:08;101833.17;;;2.09;100.00
50867;BME280;36839;51.946;21.002;2023-02-14T08:16:35;101837.89;;;2.10;100.00
50867;BME280;36839;51.946;21.002;2023-02-14T08:19:03;101842.55;;;2.13;100.00
50867;BME280;36839;51.946;21.002;2023-02-14T08:21:31;101845.83;;;2.17;100.00
50867;BME280;36839;51.946;21.002;2023-02-14T08:23:58;101847.91;;;2.20;100.00
50867;BME280;36839;51.946;21.002;2023-02-14T08:26:25;101846.01;;;2.23;100.00
50867;BME280;36839;51.946;21.002;2023-02-14T08:28:52;101849.20;;;2.25;100.00
50867;BME280;36839;51.946;21.002;2023-02-14T08:31:30;101852.70;;;2.25;100.00
50867;BME280;36839;51.946;21.002;2023-02-14T08:33:57;101855.77;;;2.27;100.00
50867;BME280;36839;51.946;21.002;2023-02-14T08:36:24;101859.58;;;2.24;100.00
50867;BME280;36839;51.946;21.002;2023-02-14T08:38:51;101857.67;;;2.22;100.00
50867;BME280;36839;51.946;21.002;2023-02-14T08:41:18;101863.90;;;2.24;100.00
50867;BME280;36839;51.946;21.002;2023-02-14T08:43:45;101855.60;;;2.28;100.00
50867;BME280;36839;51.946;21.002;2023-02-14T08:46:14;101861.68;;;2.33;100.00
50867;BME280;36839;51.946;21.002;2023-02-14T08:48:43;101864.07;;;2.34;100.00
50867;BME280;36839;51.946;21.002;2023-02-14T08:51:13;101859.15;;;2.37;100.00
50867;BME280;36839;51.946;21.002;2023-02-14T08:53:40;101860.67;;;2.40;100.00
50867;BME280;36839;51.946;21.002;2023-02-14T08:56:18;101857.46;;;2.41;100.00
50867;BME280;36839;51.946;21.002;2023-02-14T08:58:52;101855.54;;;2.47;100.00
50867;BME280;36839;51.946;21.002;2023-02-14T09:01:21;101849.55;;;2.49;100.00
50867;BME280;36839;51.946;21.002;2023-02-14T09:03:49;101855.27;;;2.60;100.00
50867;BME280;36839;51.946;21.002;2023-02-14T09:06:16;101859.58;;;2.55;100.00
50867;BME280;36839;51.946;21.002;2023-02-14T09:08:44;101858.43;;;2.54;100.00
50867;BME280;36839;51.946;21.002;2023-02-14T09:11:18;101860.19;;;2.50;100.00
50867;BME280;36839;51.946;21.002;2023-02-14T09:13:45;101865.80;;;2.49;100.00
50867;BME280;36839;51.946;21.002;2023-02-14T09:16:15;101863.67;;;2.53;100.00
50867;BME280;36839;51.946;21.002;2023-02-14T09:18:44;101860.61;;;2.56;100.00
50867;BME280;36839;51.946;21.002;2023-02-14T09:21:20;101858.83;;;2.62;100.00
50867;BME280;36839;51.946;21.002;2023-02-14T09:23:48;101865.23;;;2.63;100.00
50867;BME280;36839;51.946;21.002;2023-02-14T09:26:17;101867.45;;;2.63;100.00
50867;BME280;36839;51.946;21.002;2023-02-14T09:28:45;101871.27;;;2.61;100.00
50867;BME280;36839;51.946;21.002;2023-02-14T09:31:15;101867.89;;;2.62;100.00
50867;BME280;36839;51.946;21.002;2023-02-14T09:33:50;101873.50;;;2.55;100.00
50867;BME280;36839;51.946;21.002;2023-02-14T09:36:22;101872.56;;;2.50;100.00
50867;BME280;36839;51.946;21.002;2023-02-14T09:39:11;101873.88;;;2.53;100.00
50867;BME280;36839;51.946;21.002;2023-02-14T09:45:14;101871.29;;;2.66;100.00
50867;BME280;36839;51.946;21.002;2023-02-14T09:53:01;101876.38;;;2.66;100.00
50867;BME280;36839;51.946;21.002;2023-02-14T09:55:37;101872.44;;;2.61;100.00
50867;BME280;36839;51.946;21.002;2023-02-14T09:58:17;101873.80;;;2.62;100.00
50867;BME280;36839;51.946;21.002;2023-02-14T10:00:54;101866.95;;;2.69;100.00
50867;BME280;36839;51.946;21.002;2023-02-14T10:06:20;101869.98;;;2.76;100.00
50867;BME280;36839;51.946;21.002;2023-02-14T10:09:25;101871.19;;;2.80;100.00
50867;BME280;36839;51.946;21.002;2023-02-14T10:11:56;101873.08;;;2.81;100.00
50867;BME280;36839;51.946;21.002;2023-02-14T10:14:34;101872.86;;;2.79;100.00
50867;BME280;36839;51.946;21.002;2023-02-14T10:20:03;101867.70;;;2.81;100.00
50867;BME280;36839;51.946;21.002;2023-02-14T10:22:40;101873.45;;;2.83;100.00
50867;BME280;36839;51.946;21.002;2023-02-14T10:25:25;101874.09;;;2.79;100.00
50867;BME280;36839;51.946;21.002;2023-02-14T10:28:13;101869.31;;;2.79;100.00
50867;BME280;36839;51.946;21.002;2023-02-14T10:33:37;101870.01;;;2.89;100.00
50867;BME280;36839;51.946;21.002;2023-02-14T10:39:16;101868.41;;;2.93;100.00
50867;BME280;36839;51.946;21.002;2023-02-14T10:48:15;101866.13;;;3.03;100.00
50867;BME280;36839;51.946;21.002;2023-02-14T10:50:42;101860.98;;;2.96;100.00
50867;BME280;36839;51.946;21.002;2023-02-14T10:56:18;101863.59;;;3.00;100.00
50867;BME280;36839;51.946;21.002;2023-02-14T10:58:47;101864.64;;;3.02;100.00
50867;BME280;36839;51.946;21.002;2023-02-14T11:01:17;101859.31;;;3.01;100.00
50867;BME280;36839;51.946;21.002;2023-02-14T11:03:55;101856.50;;;3.05;100.00
50867;BME280;36839;51.946;21.002;2023-02-14T11:06:29;101851.54;;;3.07;100.00
50867;BME280;36839;51.946;21.002;2023-02-14T11:08:56;101850.99;;;3.10;100.00
50867;BME280;36839;51.946;21.002;2023-02-14T11:11:54;101850.15;;;3.06;100.00
50867;BME280;36839;51.946;21.002;2023-02-14T11:14:25;101845.55;;;3.03;100.00
50867;BME280;36839;51.946;21.002;2023-02-14T11:16:55;101843.92;;;3.04;100.00
50867;BME280;36839;51.946;21.002;2023-02-14T11:19:32;101850.96;;;3.07;100.00
50867;BME280;36839;51.946;21.002;2023-02-14T11:22:04;101859.86;;;3.03;100.00
50867;BME280;36839;51.946;21.002;2023-02-14T11:24:34;101857.42;;;3.00;100.00
50867;BME280;36839;51.946;21.002;2023-02-14T11:29:44;101852.66;;;2.95;100.00
50867;BME280;36839;51.946;21.002;2023-02-14T11:32:34;101848.30;;;2.97;100.00
50867;BME280;36839;51.946;21.002;2023-02-14T11:35:06;101861.79;;;2.94;100.00
50867;BME280;36839;51.946;21.002;2023-02-14T11:37:42;101851.06;;;2.97;100.00
50867;BME280;36839;51.946;21.002;2023-02-14T11:40:40;101844.71;;;3.03;100.00
50867;BME280;36839;51.946;21.002;2023-02-14T11:45:43;101843.23;;;3.09;100.00
50867;BME280;36839;51.946;21.002;2023-02-14T11:48:29;101837.58;;;3.08;100.00
50867;BME280;36839;51.946;21.002;2023-02-14T11:51:12;101837.77;;;3.16;100.00
50867;BME280;36839;51.946;21.002;2023-02-14T11:53:49;101843.24;;;3.12;100.00
50867;BME280;36839;51.946;21.002;2023-02-14T11:56:19;101827.79;;;3.17;100.00
50867;BME280;36839;51.946;21.002;2023-02-14T11:59:00;101823.77;;;3.25;100.00
50867;BME280;36839;51.946;21.002;2023-02-14T12:01:31;101821.14;;;3.33;100.00
50867;BME280;36839;51.946;21.002;2023-02-14T12:04:12;101823.63;;;3.33;100.00
50867;BME280;36839;51.946;21.002;2023-02-14T12:06:44;101826.61;;;3.36;100.00
50867;BME280;36839;51.946;21.002;2023-02-14T12:12:01;101823.83;;;3.30;100.00
50867;BME280;36839;51.946;21.002;2023-02-14T12:14:32;101828.48;;;3.25;100.00
50867;BME280;36839;51.946;21.002;2023-02-14T12:17:05;101826.35;;;3.21;100.00
50867;BME280;36839;51.946;21.002;2023-02-14T12:20:08;101820.30;;;3.20;100.00
50867;BME280;36839;51.946;21.002;2023-02-14T12:25:54;101824.00;;;3.20;100.00
50867;BME280;36839;51.946;21.002;2023-02-14T12:28:28;101821.69;;;3.24;100.00
50867;BME280;36839;51.946;21.002;2023-02-14T12:30:57;101820.41;;;3.30;100.00
50867;BME280;36839;51.946;21.002;2023-02-14T12:33:24;101815.54;;;3.32;100.00
50867;BME280;36839;51.946;21.002;2023-02-14T12:36:09;101813.80;;;3.33;100.00
50867;BME280;36839;51.946;21.002;2023-02-14T12:38:56;101816.83;;;3.34;100.00
50867;BME280;36839;51.946;21.002;2023-02-14T12:44:24;101820.71;;;3.23;100.00
50867;BME280;36839;51.946;21.002;2023-02-14T12:50:06;101820.91;;;3.27;100.00
50867;BME280;36839;51.946;21.002;2023-02-14T13:05:30;101818.94;;;3.21;100.00
50867;BME280;36839;51.946;21.002;2023-02-14T13:10:10;101820.73;;;3.23;100.00
50867;BME280;36839;51.946;21.002;2023-02-14T13:13:04;101816.11;;;3.22;100.00
50867;BME280;36839;51.946;21.002;2023-02-14T13:19:03;101812.25;;;3.20;100.00
50867;BME280;36839;51.946;21.002;2023-02-14T13:21:49;101808.60;;;3.22;100.00
50867;BME280;36839;51.946;21.002;2023-02-14T13:24:23;101810.66;;;3.27;100.00
50867;BME280;36839;51.946;21.002;2023-02-14T13:26:55;101814.88;;;3.32;100.00
50867;BME280;36839;51.946;21.002;2023-02-14T13:29:31;101809.00;;;3.38;100.00
50867;BME280;36839;51.946;21.002;2023-02-14T13:32:02;101811.88;;;3.37;100.00
50867;BME280;36839;51.946;21.002;2023-02-14T13:34:37;101818.70;;;3.41;100.00
50867;BME280;36839;51.946;21.002;2023-02-14T13:37:10;101815.75;;;3.44;100.00
50867;BME280;36839;51.946;21.002;2023-02-14T13:39:41;101816.20;;;3.47;100.00
50867;BME280;36839;51.946;21.002;2023-02-14T13:42:48;101812.64;;;3.44;100.00
50867;BME280;36839;51.946;21.002;2023-02-14T13:45:01;101820.86;;;3.41;100.00
50867;BME280;36839;51.946;21.002;2023-02-14T13:47:28;101818.13;;;3.43;100.00
50867;BME280;36839;51.946;21.002;2023-02-14T13:49:58;101817.64;;;3.42;100.00
50867;BME280;36839;51.946;21.002;2023-02-14T13:52:48;101819.55;;;3.43;100.00
50867;BME280;36839;51.946;21.002;2023-02-14T13:55:22;101815.39;;;3.35;100.00
50867;BME280;36839;51.946;21.002;2023-02-14T13:58:04;101822.13;;;3.34;100.00
50867;BME280;36839;51.946;21.002;2023-02-14T14:00:44;101821.89;;;3.28;100.00
50867;BME280;36839;51.946;21.002;2023-02-14T14:06:11;101818.52;;;3.18;100.00
50867;BME280;36839;51.946;21.002;2023-02-14T14:08:45;101819.92;;;3.14;100.00
50867;BME280;36839;51.946;21.002;2023-02-14T14:13:58;101813.45;;;3.16;100.00
50867;BME280;36839;51.946;21.002;2023-02-14T14:22:04;101820.67;;;3.22;100.00
50867;BME280;36839;51.946;21.002;2023-02-14T14:24:37;101823.91;;;3.23;100.00
50867;BME280;36839;51.946;21.002;2023-02-14T14:27:15;101819.04;;;3.21;100.00
50867;BME280;36839;51.946;21.002;2023-02-14T14:29:59;101823.72;;;3.20;100.00
50867;BME280;36839;51.946;21.002;2023-02-14T14:33:28;101828.16;;;3.21;100.00
50867;BME280;36839;51.946;21.002;2023-02-14T14:36:01;101828.91;;;3.16;100.00
50867;BME280;36839;51.946;21.002;2023-02-14T14:38:31;101826.70;;;3.18;100.00
50867;BME280;36839;51.946;21.002;2023-02-14T14:41:00;101822.98;;;3.16;100.00
50867;BME280;36839;51.946;21.002;2023-02-14T14:43:33;101826.66;;;3.17;100.00
50867;BME280;36839;51.946;21.002;2023-02-14T14:46:02;101833.27;;;3.13;100.00
50867;BME280;36839;51.946;21.002;2023-02-14T14:48:35;101829.88;;;3.16;100.00
50867;BME280;36839;51.946;21.002;2023-02-14T14:51:05;101825.60;;;3.20;100.00
50867;BME280;36839;51.946;21.002;2023-02-14T14:56:05;101828.23;;;3.18;100.00
50867;BME280;36839;51.946;21.002;2023-02-14T14:58:40;101828.26;;;3.18;100.00
50867;BME280;36839;51.946;21.002;2023-02-14T15:01:13;101824.40;;;3.18;100.00
50867;BME280;36839;51.946;21.002;2023-02-14T15:03:52;101830.61;;;3.13;100.00